createdAt,value
2022-11-17T00:00:07.350Z,86.13
2022-11-17T00:00:17.255Z,86.13
2022-11-17T00:00:27.372Z,86.13
2022-11-17T00:00:37.357Z,86.13
2022-11-17T00:00:47.175Z,86.13
2022-11-17T00:00:57.838Z,86.13
2022-11-17T00:01:07.332Z,86.13
2022-11-17T00:01:17.489Z,86.13
2022-11-17T00:01:27.215Z,86.13
2022-11-17T00:01:37.394Z,86.13
2022-11-17T00:01:47.365Z,86.13
2022-11-17T00:01:57.398Z,86.13
2022-11-17T00:02:07.472Z,86.13
2022-11-17T00:02:17.285Z,86.13
2022-11-17T00:02:27.373Z,86.13
2022-11-17T00:02:37.525Z,86.13
2022-11-17T00:02:47.407Z,86.13
2022-11-17T00:02:57.283Z,86.13
2022-11-17T00:03:07.443Z,86.13
2022-11-17T00:03:17.271Z,86.13
2022-11-17T00:03:27.252Z,86.03
2022-11-17T00:03:37.820Z,86.03
2022-11-17T00:03:47.238Z,86.03
2022-11-17T00:03:57.233Z,86.03
2022-11-17T00:04:07.489Z,86.03
2022-11-17T00:04:17.262Z,86.03
2022-11-17T00:04:27.259Z,85.93
2022-11-17T00:04:37.148Z,85.93
2022-11-17T00:04:47.413Z,85.93
2022-11-17T00:04:57.416Z,85.93
2022-11-17T00:05:07.188Z,85.93
2022-11-17T00:05:17.200Z,85.93
2022-11-17T00:05:27.196Z,85.83
2022-11-17T00:05:37.233Z,85.83
2022-11-17T00:05:47.157Z,85.83
2022-11-17T00:05:57.220Z,85.83
2022-11-17T00:06:07.228Z,85.83
2022-11-17T00:06:17.256Z,85.83
2022-11-17T00:06:27.168Z,85.83
2022-11-17T00:06:37.369Z,85.83
2022-11-17T00:06:47.172Z,85.83
2022-11-17T00:06:57.250Z,85.83
2022-11-17T00:07:07.293Z,85.83
2022-11-17T00:07:17.314Z,85.83
2022-11-17T00:07:27.502Z,85.83
2022-11-17T00:07:37.337Z,85.72
2022-11-17T00:07:47.296Z,85.72
2022-11-17T00:07:57.398Z,85.72
2022-11-17T00:08:07.210Z,85.72
2022-11-17T00:08:17.431Z,85.72
2022-11-17T00:08:27.259Z,85.72
2022-11-17T00:08:37.390Z,85.72
2022-11-17T00:08:47.409Z,85.72
2022-11-17T00:08:57.331Z,85.62
2022-11-17T00:09:07.355Z,85.62
2022-11-17T00:09:17.156Z,85.62
2022-11-17T00:09:27.364Z,85.62
2022-11-17T00:09:37.285Z,85.62
2022-11-17T00:09:47.233Z,85.52
2022-11-17T00:09:57.432Z,85.52
2022-11-17T00:10:07.205Z,85.52
2022-11-17T00:10:17.361Z,85.52
2022-11-17T00:10:27.330Z,85.55
2022-11-17T00:10:37.156Z,85.52
2022-11-17T00:10:47.158Z,85.52
2022-11-17T00:10:57.198Z,85.52
2022-11-17T00:11:07.182Z,85.62
2022-11-17T00:11:17.457Z,85.52
2022-11-17T00:11:27.244Z,85.52
2022-11-17T00:11:37.312Z,85.52
2022-11-17T00:11:47.333Z,85.52
2022-11-17T00:11:57.574Z,85.52
2022-11-17T00:12:07.302Z,85.41
2022-11-17T00:12:22.350Z,85.41
2022-11-17T00:12:32.662Z,85.31
2022-11-17T00:12:37.445Z,85.35
2022-11-17T00:12:47.402Z,85.35
2022-11-17T00:12:57.292Z,85.35
2022-11-17T00:13:07.441Z,85.35
2022-11-17T00:13:17.338Z,85.45
2022-11-17T00:13:27.361Z,85.45
2022-11-17T00:13:37.400Z,85.45
2022-11-17T00:13:47.237Z,85.45
2022-11-17T00:13:57.407Z,85.55
2022-11-17T00:14:07.468Z,85.52
2022-11-17T00:14:17.195Z,85.55
2022-11-17T00:14:27.153Z,85.55
2022-11-17T00:14:37.219Z,85.55
2022-11-17T00:14:47.225Z,85.52
2022-11-17T00:14:57.354Z,85.62
2022-11-17T00:15:07.248Z,85.62
2022-11-17T00:15:17.441Z,85.66
2022-11-17T00:15:27.387Z,85.66
2022-11-17T00:15:37.434Z,85.66
2022-11-17T00:15:47.408Z,85.66
2022-11-17T00:15:57.516Z,85.76
2022-11-17T00:16:07.234Z,85.76
2022-11-17T00:16:17.230Z,85.76
2022-11-17T00:16:27.189Z,85.76
2022-11-17T00:16:37.461Z,85.66
2022-11-17T00:16:47.312Z,85.76
2022-11-17T00:16:57.236Z,85.76
2022-11-17T00:17:07.203Z,85.76
2022-11-17T00:17:17.202Z,85.76
2022-11-17T00:17:27.328Z,85.76
2022-11-17T00:17:37.409Z,85.76
2022-11-17T00:17:47.277Z,85.76
2022-11-17T00:17:57.220Z,85.76
2022-11-17T00:18:07.297Z,85.76
2022-11-17T00:18:17.351Z,85.76
2022-11-17T00:18:27.440Z,85.76
2022-11-17T00:18:37.396Z,85.76
2022-11-17T00:18:47.261Z,85.76
2022-11-17T00:18:57.157Z,85.76
2022-11-17T00:19:07.297Z,85.76
2022-11-17T00:19:17.218Z,85.76
2022-11-17T00:19:27.445Z,85.76
2022-11-17T00:19:37.225Z,85.76
2022-11-17T00:19:47.363Z,85.76
2022-11-17T00:19:57.264Z,85.86
2022-11-17T00:20:07.298Z,85.76
2022-11-17T00:20:17.227Z,85.86
2022-11-17T00:20:27.447Z,85.86
2022-11-17T00:20:37.259Z,85.76
2022-11-17T00:20:47.243Z,85.76
2022-11-17T00:20:57.422Z,85.76
2022-11-17T00:21:07.265Z,85.86
2022-11-17T00:21:17.197Z,85.76
2022-11-17T00:21:27.399Z,85.76
2022-11-17T00:21:37.285Z,85.76
2022-11-17T00:21:47.283Z,85.76
2022-11-17T00:21:57.263Z,85.76
2022-11-17T00:22:07.151Z,85.76
2022-11-17T00:22:17.288Z,85.76
2022-11-17T00:22:27.347Z,85.76
2022-11-17T00:22:37.373Z,85.76
2022-11-17T00:22:47.210Z,85.86
2022-11-17T00:22:57.419Z,85.86
2022-11-17T00:23:07.362Z,85.86
2022-11-17T00:23:17.224Z,85.86
2022-11-17T00:23:27.397Z,85.86
2022-11-17T00:23:37.375Z,85.86
2022-11-17T00:23:47.798Z,85.86
2022-11-17T00:23:57.386Z,85.97
2022-11-17T00:24:07.386Z,85.97
2022-11-17T00:24:17.455Z,85.97
2022-11-17T00:24:27.381Z,85.97
2022-11-17T00:24:37.234Z,86.07
2022-11-17T00:24:47.213Z,86.07
2022-11-17T00:24:57.326Z,86.07
2022-11-17T00:25:07.405Z,86.07
2022-11-17T00:25:17.438Z,86.07
2022-11-17T00:25:27.322Z,86.18
2022-11-17T00:25:37.425Z,86.18
2022-11-17T00:25:47.439Z,86.18
2022-11-17T00:25:57.406Z,86.07
2022-11-17T00:26:07.209Z,86.07
2022-11-17T00:26:17.277Z,86.07
2022-11-17T00:26:27.156Z,85.97
2022-11-17T00:26:37.350Z,85.97
2022-11-17T00:26:47.333Z,85.97
2022-11-17T00:26:57.237Z,85.86
2022-11-17T00:27:07.417Z,85.97
2022-11-17T00:27:17.235Z,85.86
2022-11-17T00:27:27.366Z,85.86
2022-11-17T00:27:37.361Z,85.86
2022-11-17T00:27:47.341Z,85.97
2022-11-17T00:27:57.180Z,85.97
2022-11-17T00:28:07.237Z,85.97
2022-11-17T00:28:17.327Z,85.97
2022-11-17T00:28:27.205Z,86.07
2022-11-17T00:28:37.228Z,86.07
2022-11-17T00:28:47.238Z,86.07
2022-11-17T00:28:57.221Z,86.18
2022-11-17T00:29:07.455Z,86.18
2022-11-17T00:29:17.388Z,86.18
2022-11-17T00:29:27.272Z,86.18
2022-11-17T00:29:39.346Z,86.28
2022-11-17T00:29:47.211Z,86.28
2022-11-17T00:29:57.305Z,86.28
2022-11-17T00:30:07.456Z,86.28
2022-11-17T00:30:17.347Z,86.28
2022-11-17T00:30:27.382Z,86.38
2022-11-17T00:30:37.350Z,86.38
2022-11-17T00:30:47.378Z,86.38
2022-11-17T00:30:57.284Z,86.38
2022-11-17T00:31:07.157Z,86.38
2022-11-17T00:31:17.212Z,86.38
2022-11-17T00:31:27.161Z,86.38
2022-11-17T00:31:37.291Z,86.38
2022-11-17T00:31:47.366Z,86.38
2022-11-17T00:31:57.353Z,86.38
2022-11-17T00:32:07.449Z,86.38
2022-11-17T00:32:17.222Z,86.38
2022-11-17T00:32:27.335Z,86.38
2022-11-17T00:32:37.236Z,86.49
2022-11-17T00:32:47.354Z,86.49
2022-11-17T00:32:57.335Z,86.49
2022-11-17T00:33:07.472Z,86.49
2022-11-17T00:33:17.361Z,86.63
2022-11-17T00:33:27.262Z,86.59
2022-11-17T00:33:37.518Z,86.59
2022-11-17T00:33:47.424Z,86.63
2022-11-17T00:33:57.286Z,86.59
2022-11-17T00:34:07.450Z,86.59
2022-11-17T00:34:17.375Z,86.59
2022-11-17T00:34:27.164Z,86.63
2022-11-17T00:34:37.431Z,86.59
2022-11-17T00:34:47.399Z,86.69
2022-11-17T00:34:57.347Z,86.69
2022-11-17T00:35:07.166Z,86.69
2022-11-17T00:35:17.243Z,86.79
2022-11-17T00:35:27.174Z,86.83
2022-11-17T00:35:37.310Z,86.90
2022-11-17T00:35:47.166Z,86.90
2022-11-17T00:35:57.238Z,86.90
2022-11-17T00:36:07.213Z,86.90
2022-11-17T00:36:17.394Z,86.90
2022-11-17T00:36:27.331Z,86.90
2022-11-17T00:36:37.184Z,86.90
2022-11-17T00:36:47.473Z,86.90
2022-11-17T00:36:57.269Z,86.90
2022-11-17T00:37:07.239Z,87.00
2022-11-17T00:37:17.389Z,87.00
2022-11-17T00:37:27.462Z,86.90
2022-11-17T00:37:37.156Z,86.90
2022-11-17T00:37:47.277Z,86.90
2022-11-17T00:37:57.267Z,86.90
2022-11-17T00:38:07.193Z,86.90
2022-11-17T00:38:17.397Z,86.90
2022-11-17T00:38:27.314Z,86.79
2022-11-17T00:38:37.344Z,86.90
2022-11-17T00:38:47.333Z,86.90
2022-11-17T00:38:57.366Z,87.00
2022-11-17T00:39:07.331Z,87.00
2022-11-17T00:39:17.402Z,87.10
2022-11-17T00:39:27.294Z,87.10
2022-11-17T00:39:37.371Z,87.10
2022-11-17T00:39:47.383Z,87.10
2022-11-17T00:40:00.701Z,87.10
2022-11-17T00:40:07.458Z,87.10
2022-11-17T00:40:17.216Z,87.10
2022-11-17T00:40:27.410Z,87.10
2022-11-17T00:40:37.414Z,87.10
2022-11-17T00:40:47.450Z,87.10
2022-11-17T00:40:57.380Z,87.10
2022-11-17T00:41:07.379Z,87.10
2022-11-17T00:41:17.303Z,87.10
2022-11-17T00:41:27.463Z,87.10
2022-11-17T00:41:37.354Z,87.10
2022-11-17T00:41:47.408Z,87.10
2022-11-17T00:41:57.405Z,87.10
2022-11-17T00:42:07.264Z,87.10
2022-11-17T00:42:17.208Z,87.10
2022-11-17T00:42:27.352Z,87.10
2022-11-17T00:42:37.301Z,87.10
2022-11-17T00:42:47.190Z,87.00
2022-11-17T00:42:57.429Z,87.00
2022-11-17T00:43:07.179Z,87.00
2022-11-17T00:43:17.437Z,87.00
2022-11-17T00:43:27.395Z,87.00
2022-11-17T00:43:37.573Z,87.10
2022-11-17T00:43:47.229Z,87.10
2022-11-17T00:43:57.288Z,87.10
2022-11-17T00:44:07.550Z,87.10
2022-11-17T00:44:17.326Z,87.10
2022-11-17T00:44:27.346Z,87.10
2022-11-17T00:44:37.249Z,87.10
2022-11-17T00:44:47.321Z,87.10
2022-11-17T00:44:57.251Z,87.10
2022-11-17T00:45:07.387Z,87.10
2022-11-17T00:45:17.429Z,87.10
2022-11-17T00:45:27.204Z,87.00
2022-11-17T00:45:37.456Z,87.10
2022-11-17T00:45:47.369Z,87.00
2022-11-17T00:45:57.216Z,87.00
2022-11-17T00:46:07.330Z,87.00
2022-11-17T00:46:17.298Z,87.00
2022-11-17T00:46:27.446Z,87.10
2022-11-17T00:46:37.419Z,87.10
2022-11-17T00:46:47.256Z,87.00
2022-11-17T00:46:57.312Z,87.00
2022-11-17T00:47:07.226Z,87.00
2022-11-17T00:47:17.229Z,87.10
2022-11-17T00:47:27.408Z,87.10
2022-11-17T00:47:37.184Z,87.10
2022-11-17T00:47:47.335Z,87.00
2022-11-17T00:47:57.408Z,87.10
2022-11-17T00:48:07.176Z,87.10
2022-11-17T00:48:17.491Z,87.10
2022-11-17T00:48:27.447Z,87.10
2022-11-17T00:48:37.159Z,87.10
2022-11-17T00:48:47.193Z,87.10
2022-11-17T00:48:57.235Z,87.00
2022-11-17T00:49:07.266Z,87.00
2022-11-17T00:49:17.308Z,87.00
2022-11-17T00:49:27.173Z,87.10
2022-11-17T00:49:37.368Z,87.00
2022-11-17T00:49:47.177Z,87.00
2022-11-17T00:49:57.243Z,87.00
2022-11-17T00:50:07.336Z,87.00
2022-11-17T00:50:17.297Z,87.00
2022-11-17T00:50:27.474Z,87.00
2022-11-17T00:50:37.459Z,87.00
2022-11-17T00:50:47.358Z,87.00
2022-11-17T00:50:57.187Z,87.00
2022-11-17T00:51:07.353Z,87.00
2022-11-17T00:51:17.184Z,87.00
2022-11-17T00:51:27.351Z,87.00
2022-11-17T00:51:37.424Z,87.10
2022-11-17T00:51:47.250Z,87.10
2022-11-17T00:51:57.409Z,87.10
2022-11-17T00:52:07.193Z,87.10
2022-11-17T00:52:17.421Z,87.10
2022-11-17T00:52:27.259Z,87.10
2022-11-17T00:52:37.290Z,87.10
2022-11-17T00:52:47.398Z,87.10
2022-11-17T00:52:57.278Z,87.10
2022-11-17T00:53:07.404Z,87.10
2022-11-17T00:53:17.171Z,87.10
2022-11-17T00:53:27.217Z,87.10
2022-11-17T00:53:37.453Z,87.10
2022-11-17T00:53:47.461Z,87.10
2022-11-17T00:53:57.395Z,87.10
2022-11-17T00:54:07.261Z,87.00
2022-11-17T00:54:17.442Z,87.00
2022-11-17T00:54:27.192Z,87.00
2022-11-17T00:54:37.353Z,87.00
2022-11-17T00:54:47.391Z,87.00
2022-11-17T00:54:57.335Z,87.00
2022-11-17T00:55:07.420Z,87.00
2022-11-17T00:55:17.435Z,87.00
2022-11-17T00:55:27.504Z,87.00
2022-11-17T00:55:37.312Z,87.00
2022-11-17T00:55:47.303Z,86.96
2022-11-17T00:55:57.481Z,87.00
2022-11-17T00:56:07.279Z,87.00
2022-11-17T00:56:17.388Z,87.00
2022-11-17T00:56:27.255Z,87.00
2022-11-17T00:56:37.364Z,87.00
2022-11-17T00:56:47.267Z,87.10
2022-11-17T00:56:57.297Z,87.00
2022-11-17T00:57:07.251Z,87.10
2022-11-17T00:57:17.261Z,87.10
2022-11-17T00:57:27.214Z,87.10
2022-11-17T00:57:37.375Z,87.10
2022-11-17T00:57:47.271Z,87.10
2022-11-17T00:57:57.456Z,87.10
2022-11-17T00:58:07.282Z,87.10
2022-11-17T00:58:17.534Z,87.10
2022-11-17T00:58:27.349Z,87.10
2022-11-17T00:58:37.191Z,87.10
2022-11-17T00:58:47.395Z,87.10
2022-11-17T00:58:57.388Z,87.10
2022-11-17T00:59:07.296Z,87.10
2022-11-17T00:59:17.412Z,87.10
2022-11-17T00:59:27.250Z,87.00
2022-11-17T00:59:37.332Z,87.00
2022-11-17T00:59:47.177Z,87.00
2022-11-17T00:59:57.214Z,87.00
2022-11-17T01:00:07.443Z,87.00
2022-11-17T01:00:17.396Z,87.00
2022-11-17T01:00:27.250Z,87.10
2022-11-17T01:00:37.356Z,87.00
2022-11-17T01:00:47.293Z,87.00
2022-11-17T01:00:57.228Z,86.96
2022-11-17T01:01:07.491Z,87.00
2022-11-17T01:01:17.331Z,86.96
2022-11-17T01:01:27.405Z,86.96
2022-11-17T01:01:37.462Z,86.96
2022-11-17T01:01:47.550Z,87.00
2022-11-17T01:01:57.445Z,86.96
2022-11-17T01:02:07.315Z,87.00
2022-11-17T01:02:17.358Z,86.90
2022-11-17T01:02:27.481Z,86.90
2022-11-17T01:02:37.447Z,86.90
2022-11-17T01:02:47.264Z,86.90
2022-11-17T01:02:57.215Z,86.90
2022-11-17T01:03:07.309Z,87.00
2022-11-17T01:03:17.461Z,87.00
2022-11-17T01:03:27.313Z,86.86
2022-11-17T01:03:37.633Z,87.00
2022-11-17T01:03:47.267Z,87.00
2022-11-17T01:03:57.153Z,87.00
2022-11-17T01:04:07.216Z,87.00
2022-11-17T01:04:17.407Z,87.00
2022-11-17T01:04:27.377Z,87.00
2022-11-17T01:04:37.360Z,87.00
2022-11-17T01:04:47.370Z,87.00
2022-11-17T01:04:57.195Z,87.00
2022-11-17T01:05:07.424Z,87.00
2022-11-17T01:05:17.339Z,87.00
2022-11-17T01:05:32.703Z,87.00
2022-11-17T01:05:37.198Z,87.00
2022-11-17T01:05:47.351Z,87.00
2022-11-17T01:05:57.191Z,86.96
2022-11-17T01:06:07.309Z,87.00
2022-11-17T01:06:17.269Z,87.00
2022-11-17T01:06:27.419Z,86.90
2022-11-17T01:06:37.159Z,86.86
2022-11-17T01:06:47.442Z,86.90
2022-11-17T01:06:57.480Z,86.90
2022-11-17T01:07:07.297Z,86.90
2022-11-17T01:07:17.527Z,86.90
2022-11-17T01:07:27.626Z,86.90
2022-11-17T01:07:37.402Z,86.86
2022-11-17T01:07:47.214Z,86.90
2022-11-17T01:07:57.209Z,86.86
2022-11-17T01:08:07.217Z,86.90
2022-11-17T01:08:17.221Z,86.90
2022-11-17T01:08:27.476Z,86.90
2022-11-17T01:08:37.338Z,86.86
2022-11-17T01:08:47.374Z,86.90
2022-11-17T01:08:57.275Z,86.86
2022-11-17T01:09:07.208Z,86.86
2022-11-17T01:09:17.155Z,86.86
2022-11-17T01:09:27.350Z,86.90
2022-11-17T01:09:37.288Z,86.86
2022-11-17T01:09:47.188Z,86.86
2022-11-17T01:09:57.223Z,86.86
2022-11-17T01:10:07.262Z,86.86
2022-11-17T01:10:17.196Z,86.90
2022-11-17T01:10:27.227Z,86.86
2022-11-17T01:10:37.284Z,86.86
2022-11-17T01:10:47.171Z,86.86
2022-11-17T01:10:57.298Z,86.76
2022-11-17T01:11:07.483Z,86.76
2022-11-17T01:11:17.242Z,86.76
2022-11-17T01:11:27.433Z,86.76
2022-11-17T01:11:37.159Z,86.76
2022-11-17T01:11:47.372Z,86.76
2022-11-17T01:11:57.240Z,86.79
2022-11-17T01:12:07.441Z,86.76
2022-11-17T01:12:17.342Z,86.76
2022-11-17T01:12:27.266Z,86.76
2022-11-17T01:12:37.317Z,86.65
2022-11-17T01:12:47.325Z,86.69
2022-11-17T01:12:57.441Z,86.65
2022-11-17T01:13:07.490Z,86.65
2022-11-17T01:13:17.419Z,86.65
2022-11-17T01:13:27.162Z,86.65
2022-11-17T01:13:37.550Z,86.65
2022-11-17T01:13:47.367Z,86.65
2022-11-17T01:13:57.223Z,86.65
2022-11-17T01:14:07.368Z,86.65
2022-11-17T01:14:17.382Z,86.65
2022-11-17T01:14:27.262Z,86.65
2022-11-17T01:14:37.288Z,86.65
2022-11-17T01:14:47.497Z,86.55
2022-11-17T01:14:57.338Z,86.55
2022-11-17T01:15:07.239Z,86.55
2022-11-17T01:15:17.483Z,86.55
2022-11-17T01:15:27.481Z,86.55
2022-11-17T01:15:37.178Z,86.55
2022-11-17T01:15:47.190Z,86.55
2022-11-17T01:15:57.169Z,86.55
2022-11-17T01:16:07.396Z,86.55
2022-11-17T01:16:17.165Z,86.44
2022-11-17T01:16:27.209Z,86.55
2022-11-17T01:16:37.448Z,86.55
2022-11-17T01:16:47.284Z,86.55
2022-11-17T01:16:57.483Z,86.44
2022-11-17T01:17:07.408Z,86.44
2022-11-17T01:17:17.515Z,86.44
2022-11-17T01:17:27.223Z,86.44
2022-11-17T01:17:37.197Z,86.44
2022-11-17T01:17:47.483Z,86.44
2022-11-17T01:17:57.170Z,86.44
2022-11-17T01:18:07.248Z,86.44
2022-11-17T01:18:17.411Z,86.34
2022-11-17T01:18:27.384Z,86.34
2022-11-17T01:18:37.185Z,86.34
2022-11-17T01:18:47.245Z,86.34
2022-11-17T01:18:57.205Z,86.34
2022-11-17T01:19:07.277Z,86.34
2022-11-17T01:19:17.307Z,86.24
2022-11-17T01:19:27.304Z,86.24
2022-11-17T01:19:37.252Z,86.24
2022-11-17T01:19:47.178Z,86.13
2022-11-17T01:19:57.437Z,86.13
2022-11-17T01:20:07.192Z,86.13
2022-11-17T01:20:17.280Z,86.13
2022-11-17T01:20:27.204Z,86.13
2022-11-17T01:20:37.166Z,86.13
2022-11-17T01:20:47.171Z,86.13
2022-11-17T01:20:57.296Z,86.03
2022-11-17T01:21:07.367Z,86.13
2022-11-17T01:21:17.241Z,86.13
2022-11-17T01:21:27.272Z,86.13
2022-11-17T01:21:37.266Z,86.13
2022-11-17T01:21:47.314Z,86.13
2022-11-17T01:21:57.303Z,86.13
2022-11-17T01:22:07.401Z,86.13
2022-11-17T01:22:17.177Z,86.13
2022-11-17T01:22:27.240Z,86.13
2022-11-17T01:22:37.309Z,86.13
2022-11-17T01:22:47.443Z,86.13
2022-11-17T01:22:57.239Z,86.13
2022-11-17T01:23:07.322Z,86.13
2022-11-17T01:23:17.172Z,86.13
2022-11-17T01:23:27.199Z,86.13
2022-11-17T01:23:37.400Z,86.13
2022-11-17T01:23:47.167Z,86.13
2022-11-17T01:23:57.175Z,86.13
2022-11-17T01:24:07.244Z,86.13
2022-11-17T01:24:17.432Z,86.13
2022-11-17T01:24:27.153Z,86.13
2022-11-17T01:24:37.217Z,86.03
2022-11-17T01:24:47.395Z,86.03
2022-11-17T01:24:57.299Z,86.03
2022-11-17T01:25:07.254Z,85.93
2022-11-17T01:25:17.264Z,85.93
2022-11-17T01:25:27.328Z,85.93
2022-11-17T01:25:37.166Z,85.83
2022-11-17T01:25:47.275Z,85.83
2022-11-17T01:25:57.238Z,85.83
2022-11-17T01:26:07.369Z,85.83
2022-11-17T01:26:17.231Z,85.83
2022-11-17T01:26:27.388Z,85.83
2022-11-17T01:26:37.410Z,85.83
2022-11-17T01:26:47.224Z,85.83
2022-11-17T01:26:57.287Z,85.83
2022-11-17T01:27:07.244Z,85.83
2022-11-17T01:27:17.411Z,85.83
2022-11-17T01:27:27.354Z,85.83
2022-11-17T01:27:37.376Z,85.83
2022-11-17T01:27:47.287Z,85.83
2022-11-17T01:27:57.429Z,85.83
2022-11-17T01:28:07.381Z,85.83
2022-11-17T01:28:17.372Z,85.83
2022-11-17T01:28:27.364Z,85.83
2022-11-17T01:28:37.242Z,85.83
2022-11-17T01:28:47.373Z,85.83
2022-11-17T01:28:57.430Z,85.83
2022-11-17T01:29:07.343Z,85.83
2022-11-17T01:29:17.491Z,85.83
2022-11-17T01:29:27.403Z,85.93
2022-11-17T01:29:37.196Z,85.93
2022-11-17T01:29:47.307Z,85.93
2022-11-17T01:29:57.202Z,85.93
2022-11-17T01:30:07.221Z,85.93
2022-11-17T01:30:17.333Z,85.93
2022-11-17T01:30:27.363Z,85.93
2022-11-17T01:30:37.178Z,85.93
2022-11-17T01:30:47.396Z,85.93
2022-11-17T01:30:57.466Z,85.93
2022-11-17T01:31:07.283Z,85.93
2022-11-17T01:31:17.213Z,85.93
2022-11-17T01:31:27.325Z,85.93
2022-11-17T01:31:37.312Z,85.93
2022-11-17T01:31:47.271Z,85.93
2022-11-17T01:31:57.238Z,85.93
2022-11-17T01:32:07.244Z,85.93
2022-11-17T01:32:17.486Z,85.93
2022-11-17T01:32:27.327Z,85.93
2022-11-17T01:32:37.153Z,86.03
2022-11-17T01:32:47.232Z,86.03
2022-11-17T01:32:57.194Z,86.03
2022-11-17T01:33:07.193Z,86.13
2022-11-17T01:33:17.206Z,86.13
2022-11-17T01:33:27.201Z,86.13
2022-11-17T01:33:37.679Z,86.03
2022-11-17T01:33:47.400Z,86.03
2022-11-17T01:33:57.399Z,86.03
2022-11-17T01:34:07.472Z,86.03
2022-11-17T01:34:17.405Z,86.03
2022-11-17T01:34:27.352Z,86.03
2022-11-17T01:34:37.329Z,86.03
2022-11-17T01:34:47.324Z,85.93
2022-11-17T01:34:57.367Z,85.93
2022-11-17T01:35:07.185Z,85.93
2022-11-17T01:35:17.286Z,85.93
2022-11-17T01:35:27.225Z,85.93
2022-11-17T01:35:37.159Z,85.93
2022-11-17T01:35:47.409Z,85.93
2022-11-17T01:35:57.323Z,85.93
2022-11-17T01:36:07.439Z,85.93
2022-11-17T01:36:17.368Z,85.93
2022-11-17T01:36:27.183Z,85.93
2022-11-17T01:36:37.233Z,85.97
2022-11-17T01:36:47.252Z,86.03
2022-11-17T01:36:57.301Z,86.03
2022-11-17T01:37:07.203Z,86.07
2022-11-17T01:37:17.437Z,86.03
2022-11-17T01:37:27.375Z,86.13
2022-11-17T01:37:37.183Z,86.13
2022-11-17T01:37:47.292Z,86.18
2022-11-17T01:37:57.405Z,86.13
2022-11-17T01:38:07.313Z,86.28
2022-11-17T01:38:17.399Z,86.24
2022-11-17T01:38:27.385Z,86.28
2022-11-17T01:38:37.411Z,86.28
2022-11-17T01:38:47.247Z,86.24
2022-11-17T01:38:57.321Z,86.34
2022-11-17T01:39:07.229Z,86.34
2022-11-17T01:39:17.432Z,86.34
2022-11-17T01:39:27.442Z,86.34
2022-11-17T01:39:37.214Z,86.38
2022-11-17T01:39:47.492Z,86.49
2022-11-17T01:39:57.294Z,86.44
2022-11-17T01:40:07.416Z,86.44
2022-11-17T01:40:17.406Z,86.44
2022-11-17T01:40:27.440Z,86.44
2022-11-17T01:40:37.367Z,86.44
2022-11-17T01:40:47.223Z,86.44
2022-11-17T01:40:57.215Z,86.55
2022-11-17T01:41:07.405Z,86.44
2022-11-17T01:41:17.181Z,86.44
2022-11-17T01:41:27.394Z,86.55
2022-11-17T01:41:37.442Z,86.44
2022-11-17T01:41:47.293Z,86.44
2022-11-17T01:41:57.474Z,86.55
2022-11-17T01:42:07.384Z,86.55
2022-11-17T01:42:17.245Z,86.44
2022-11-17T01:42:27.270Z,86.59
2022-11-17T01:42:37.180Z,86.44
2022-11-17T01:42:47.464Z,86.44
2022-11-17T01:42:57.286Z,86.55
2022-11-17T01:43:07.189Z,86.55
2022-11-17T01:43:17.327Z,86.55
2022-11-17T01:43:27.235Z,86.55
2022-11-17T01:43:37.446Z,86.55
2022-11-17T01:43:47.273Z,86.55
2022-11-17T01:43:57.457Z,86.55
2022-11-17T01:44:07.419Z,86.55
2022-11-17T01:44:17.179Z,86.55
2022-11-17T01:44:27.152Z,86.59
2022-11-17T01:44:37.314Z,86.55
2022-11-17T01:44:47.288Z,86.65
2022-11-17T01:44:57.254Z,86.65
2022-11-17T01:45:07.437Z,86.55
2022-11-17T01:45:17.366Z,86.65
2022-11-17T01:45:27.273Z,86.65
2022-11-17T01:45:37.415Z,86.65
2022-11-17T01:45:47.270Z,86.65
2022-11-17T01:45:57.396Z,86.65
2022-11-17T01:46:07.216Z,86.65
2022-11-17T01:46:17.178Z,86.69
2022-11-17T01:46:27.181Z,86.65
2022-11-17T01:46:37.225Z,86.69
2022-11-17T01:46:47.161Z,86.65
2022-11-17T01:47:00.914Z,86.65
2022-11-17T01:47:07.412Z,86.55
2022-11-17T01:47:17.378Z,86.59
2022-11-17T01:47:27.301Z,86.55
2022-11-17T01:47:37.198Z,86.55
2022-11-17T01:47:47.332Z,86.55
2022-11-17T01:47:57.296Z,86.59
2022-11-17T01:48:07.456Z,86.55
2022-11-17T01:48:17.312Z,86.59
2022-11-17T01:48:27.304Z,86.59
2022-11-17T01:48:37.414Z,86.59
2022-11-17T01:48:47.358Z,86.55
2022-11-17T01:48:57.384Z,86.65
2022-11-17T01:49:07.292Z,86.55
2022-11-17T01:49:17.357Z,86.65
2022-11-17T01:49:27.272Z,86.65
2022-11-17T01:49:37.421Z,86.65
2022-11-17T01:49:47.442Z,86.65
2022-11-17T01:49:57.408Z,86.65
2022-11-17T01:50:07.296Z,86.79
2022-11-17T01:50:17.227Z,86.76
2022-11-17T01:50:27.217Z,86.79
2022-11-17T01:50:37.253Z,86.76
2022-11-17T01:50:47.241Z,86.79
2022-11-17T01:50:57.264Z,86.86
2022-11-17T01:51:07.238Z,86.86
2022-11-17T01:51:17.338Z,86.90
2022-11-17T01:51:27.405Z,86.86
2022-11-17T01:51:37.348Z,86.86
2022-11-17T01:51:47.256Z,86.86
2022-11-17T01:51:57.397Z,86.86
2022-11-17T01:52:07.279Z,86.86
2022-11-17T01:52:17.317Z,86.90
2022-11-17T01:52:27.401Z,86.86
2022-11-17T01:52:37.407Z,86.86
2022-11-17T01:52:47.437Z,86.86
2022-11-17T01:52:57.199Z,86.86
2022-11-17T01:53:07.319Z,86.86
2022-11-17T01:53:17.443Z,86.86
2022-11-17T01:53:27.218Z,86.86
2022-11-17T01:53:37.555Z,86.90
2022-11-17T01:53:47.203Z,86.86
2022-11-17T01:53:57.327Z,86.86
2022-11-17T01:54:07.184Z,86.96
2022-11-17T01:54:17.363Z,86.96
2022-11-17T01:54:27.417Z,86.96
2022-11-17T01:54:37.434Z,86.96
2022-11-17T01:54:47.427Z,86.96
2022-11-17T01:54:57.278Z,86.96
2022-11-17T01:55:07.452Z,86.96
2022-11-17T01:55:17.196Z,86.96
2022-11-17T01:55:27.161Z,87.07
2022-11-17T01:55:37.398Z,87.07
2022-11-17T01:55:47.335Z,87.07
2022-11-17T01:55:57.212Z,87.07
2022-11-17T01:56:07.197Z,87.07
2022-11-17T01:56:17.405Z,87.07
2022-11-17T01:56:27.294Z,87.17
2022-11-17T01:56:37.218Z,87.17
2022-11-17T01:56:47.432Z,87.17
2022-11-17T01:56:57.224Z,87.17
2022-11-17T01:57:07.261Z,87.17
2022-11-17T01:57:17.148Z,87.17
2022-11-17T01:57:27.328Z,87.17
2022-11-17T01:57:37.336Z,87.17
2022-11-17T01:57:47.222Z,87.17
2022-11-17T01:57:57.237Z,87.27
2022-11-17T01:58:07.410Z,87.27
2022-11-17T01:58:17.323Z,87.27
2022-11-17T01:58:27.310Z,87.27
2022-11-17T01:58:37.175Z,87.27
2022-11-17T01:58:47.343Z,87.27
2022-11-17T01:58:57.412Z,87.37
2022-11-17T01:59:07.437Z,87.37
2022-11-17T01:59:17.305Z,87.37
2022-11-17T01:59:27.175Z,87.37
2022-11-17T01:59:37.215Z,87.37
2022-11-17T01:59:47.312Z,87.41
2022-11-17T01:59:57.273Z,87.37
2022-11-17T02:00:07.455Z,87.37
2022-11-17T02:00:17.156Z,87.37
2022-11-17T02:00:27.182Z,87.37
2022-11-17T02:00:37.341Z,87.37
2022-11-17T02:00:47.202Z,87.37
2022-11-17T02:00:57.171Z,87.37
2022-11-17T02:01:07.433Z,87.37
2022-11-17T02:01:17.305Z,87.37
2022-11-17T02:01:27.275Z,87.37
2022-11-17T02:01:37.408Z,87.52
2022-11-17T02:01:47.301Z,87.48
2022-11-17T02:01:57.304Z,87.48
2022-11-17T02:02:07.319Z,87.48
2022-11-17T02:02:17.469Z,87.37
2022-11-17T02:02:27.258Z,87.37
2022-11-17T02:02:37.347Z,87.37
2022-11-17T02:02:47.290Z,87.37
2022-11-17T02:02:57.208Z,87.37
2022-11-17T02:03:07.452Z,87.37
2022-11-17T02:03:17.437Z,87.37
2022-11-17T02:03:27.453Z,87.37
2022-11-17T02:03:37.725Z,87.37
2022-11-17T02:03:47.275Z,87.37
2022-11-17T02:03:57.308Z,87.37
2022-11-17T02:04:07.387Z,87.37
2022-11-17T02:04:17.382Z,87.37
2022-11-17T02:04:27.162Z,87.37
2022-11-17T02:04:37.321Z,87.37
2022-11-17T02:04:47.374Z,87.37
2022-11-17T02:04:57.234Z,87.37
2022-11-17T02:05:07.382Z,87.37
2022-11-17T02:05:17.259Z,87.37
2022-11-17T02:05:27.397Z,87.37
2022-11-17T02:05:37.227Z,87.37
2022-11-17T02:05:47.241Z,87.37
2022-11-17T02:05:57.187Z,87.37
2022-11-17T02:06:07.286Z,87.37
2022-11-17T02:06:17.336Z,87.37
2022-11-17T02:06:27.334Z,87.37
2022-11-17T02:06:37.258Z,87.37
2022-11-17T02:06:47.339Z,87.37
2022-11-17T02:06:57.402Z,87.37
2022-11-17T02:07:07.500Z,87.48
2022-11-17T02:07:17.373Z,87.37
2022-11-17T02:07:27.307Z,87.37
2022-11-17T02:07:37.234Z,87.37
2022-11-17T02:07:47.175Z,87.37
2022-11-17T02:07:57.277Z,87.37
2022-11-17T02:08:07.405Z,87.48
2022-11-17T02:08:17.399Z,87.48
2022-11-17T02:08:27.446Z,87.48
2022-11-17T02:08:37.316Z,87.48
2022-11-17T02:08:47.451Z,87.48